Time;durP1;ratioP1;P1;durP2;ratioP2;P2;SDS_P1;SDS_P2;PMS_P1;PMS_P2;Temp;Humidity;BMP_temperature;BMP_pressure;BME280_temperature;BME280_humidity;BME280_pressure;Samples;Min_cycle;Max_cycle;Signal;HPM_P1;HPM_P2
2023/01/28 00:00:11;;;;;;;0.30;0.30;;;4.30;99.90;;;;;;4991017;28;20042;-66
2023/01/28 00:02:37;;;;;;;0.00;0.00;;;4.30;99.90;;;;;;4992229;28;20042;-66
2023/01/28 00:05:03;;;;;;;0.10;0.10;;;4.30;99.90;;;;;;4991533;28;20064;-67
2023/01/28 00:07:32;;;;;;;0.10;0.10;;;4.20;99.90;;;;;;4991468;28;20049;-67
2023/01/28 00:09:58;;;;;;;0.10;0.10;;;4.20;99.90;;;;;;4990846;28;20478;-66
2023/01/28 00:12:26;;;;;;;0.10;0.10;;;4.20;99.90;;;;;;4984896;28;20048;-67
2023/01/28 00:14:52;;;;;;;0.10;0.10;;;4.20;99.90;;;;;;4989106;28;20044;-67
2023/01/28 00:17:18;;;;;;;0.10;0.10;;;4.20;99.90;;;;;;4977111;28;20038;-66
2023/01/28 00:19:44;;;;;;;0.25;0.25;;;4.30;99.90;;;;;;4992241;28;20053;-66
2023/01/28 00:22:09;;;;;;;0.15;0.15;;;4.30;99.90;;;;;;4987303;28;20533;-67
2023/01/28 00:24:38;;;;;;;0.10;0.10;;;4.30;99.90;;;;;;4988540;28;20132;-67
2023/01/28 00:27:03;;;;;;;0.17;0.17;;;4.30;99.90;;;;;;4991196;28;20048;-67
2023/01/28 00:29:29;;;;;;;0.10;0.10;;;4.40;99.90;;;;;;4990362;28;20050;-67
2023/01/28 00:31:55;;;;;;;0.28;0.28;;;4.30;99.90;;;;;;4990282;28;20790;-67
2023/01/28 00:34:26;;;;;;;0.10;0.10;;;4.20;99.90;;;;;;4991177;28;20042;-67
2023/01/28 00:36:58;;;;;;;1.58;0.65;;;4.20;99.90;;;;;;4990096;28;20046;-67
2023/01/28 00:39:25;;;;;;;0.10;0.10;;;4.20;99.90;;;;;;4991649;28;20034;-66
2023/01/28 00:41:52;;;;;;;0.10;0.10;;;4.30;99.90;;;;;;4991582;28;20129;-66
2023/01/28 00:44:18;;;;;;;1.17;1.17;;;4.30;99.90;;;;;;4989796;28;20053;-67
2023/01/28 00:46:45;;;;;;;0.10;0.10;;;4.30;99.90;;;;;;4973028;28;20048;-67
2023/01/28 00:49:10;;;;;;;0.10;0.10;;;4.20;99.90;;;;;;4991428;28;20397;-67
2023/01/28 00:51:36;;;;;;;0.10;0.10;;;4.30;99.90;;;;;;4989602;28;20137;-67
2023/01/28 00:54:02;;;;;;;0.10;0.10;;;4.40;99.90;;;;;;4990422;28;20469;-67
2023/01/28 00:56:28;;;;;;;0.15;0.15;;;4.30;99.90;;;;;;4989105;28;20081;-66
2023/01/28 00:58:53;;;;;;;0.10;0.10;;;4.30;99.90;;;;;;4990375;28;20125;-66
2023/01/28 01:01:23;;;;;;;0.10;0.10;;;4.20;99.90;;;;;;4991141;28;20623;-66
2023/01/28 01:03:56;;;;;;;0.10;0.10;;;4.20;99.90;;;;;;4987648;28;20050;-67
2023/01/28 01:06:23;;;;;;;0.52;0.52;;;4.20;99.90;;;;;;4974560;28;20544;-67
2023/01/28 01:08:49;;;;;;;0.13;0.13;;;4.20;99.90;;;;;;4968488;28;20050;-67
2023/01/28 01:11:16;;;;;;;0.40;0.40;;;4.20;99.90;;;;;;4981380;28;20078;-66
2023/01/28 01:13:42;;;;;;;0.10;0.10;;;4.20;99.90;;;;;;4990609;28;21318;-67
2023/01/28 01:16:09;;;;;;;0.10;0.10;;;4.20;99.90;;;;;;4990691;28;20410;-67
2023/01/28 01:18:36;;;;;;;0.30;0.30;;;4.20;99.90;;;;;;4990300;28;20048;-67
2023/01/28 01:21:06;;;;;;;0.10;0.10;;;4.10;99.90;;;;;;4989919;28;20054;-67
2023/01/28 01:23:31;;;;;;;0.10;0.10;;;4.20;99.90;;;;;;4989917;28;20046;-66
2023/01/28 01:25:57;;;;;;;0.25;0.25;;;4.20;99.90;;;;;;4987654;28;20310;-66
2023/01/28 01:28:23;;;;;;;0.10;0.10;;;4.30;99.90;;;;;;4988206;28;20054;-67
2023/01/28 01:30:49;;;;;;;0.10;0.10;;;4.30;99.90;;;;;;4991011;28;20042;-66
2023/01/28 01:33:15;;;;;;;0.10;0.10;;;4.30;99.90;;;;;;4988877;28;20045;-67
2023/01/28 01:35:41;;;;;;;0.10;0.10;;;4.20;99.90;;;;;;4986675;28;20126;-67
2023/01/28 01:38:07;;;;;;;0.10;0.10;;;4.20;99.90;;;;;;4989160;28;20501;-67
2023/01/28 01:40:33;;;;;;;0.10;0.10;;;4.30;99.90;;;;;;4989742;28;20046;-66
2023/01/28 01:42:59;;;;;;;0.10;0.10;;;4.20;99.90;;;;;;4988742;28;20866;-69
2023/01/28 01:45:27;;;;;;;0.10;0.10;;;4.20;99.90;;;;;;4989630;28;20045;-67
2023/01/28 01:48:09;;;;;;;0.15;0.15;;;4.20;99.90;;;;;;4987696;28;20042;-67
2023/01/28 01:50:44;;;;;;;0.10;0.10;;;4.30;99.90;;;;;;4972595;28;20414;-67
2023/01/28 01:53:16;;;;;;;0.75;0.45;;;4.30;99.90;;;;;;4988985;28;20054;-67
2023/01/28 01:55:46;;;;;;;1.38;1.33;;;4.30;99.90;;;;;;4971319;28;20132;-67
2023/01/28 01:58:15;;;;;;;0.10;0.10;;;4.30;99.90;;;;;;4989088;28;20668;-67
2023/01/28 02:00:41;;;;;;;0.10;0.10;;;4.30;99.90;;;;;;4989190;28;20061;-67
2023/01/28 02:03:08;;;;;;;0.45;0.45;;;4.30;99.90;;;;;;4989462;28;20081;-68
2023/01/28 02:05:34;;;;;;;0.10;0.10;;;4.30;99.90;;;;;;4989629;28;20034;-67
2023/01/28 02:11:07;;;;;;;0.10;0.10;;;4.30;99.90;;;;;;4989395;28;20042;-67
2023/01/28 02:13:45;;;;;;;0.10;0.10;;;4.20;99.90;;;;;;4988214;28;20104;-67
2023/01/28 02:16:12;;;;;;;0.10;0.10;;;4.20;99.90;;;;;;4987071;28;20042;-67
2023/01/28 02:18:38;;;;;;;1.45;1.00;;;4.20;99.90;;;;;;4988581;28;20053;-66
2023/01/28 02:21:06;;;;;;;0.10;0.10;;;4.20;99.90;;;;;;4987523;28;20038;-67
2023/01/28 02:23:35;;;;;;;0.10;0.10;;;4.20;99.90;;;;;;4986592;28;20510;-66
2023/01/28 02:26:39;;;;;;;0.10;0.10;;;4.20;99.90;;;;;;4966830;28;20050;-66
2023/01/28 02:29:26;;;;;;;;;;;4.20;99.90;;;;;;4979760;28;20457;-66
2023/01/28 02:32:47;;;;;;;0.10;0.10;;;4.20;99.90;;;;;;4985622;28;19945;-67
2023/01/28 02:35:34;;;;;;;0.10;0.10;;;4.20;99.90;;;;;;4940016;28;20345;-67
2023/01/28 02:38:08;;;;;;;0.10;0.10;;;4.20;99.90;;;;;;4971233;28;20464;-67
2023/01/28 02:41:01;;;;;;;0.10;0.10;;;4.40;99.90;;;;;;4988555;28;20506;-67
2023/01/28 02:43:34;;;;;;;0.15;0.15;;;4.30;99.90;;;;;;4985028;28;20050;-67
2023/01/28 02:48:56;;;;;;;0.10;0.10;;;4.10;99.90;;;;;;4967874;28;20042;-67
2023/01/28 02:51:47;;;;;;;0.10;0.10;;;4.10;99.90;;;;;;4989073;28;20113;-66
2023/01/28 02:54:28;;;;;;;0.10;0.10;;;4.10;99.90;;;;;;4988714;28;20401;-67
2023/01/28 02:57:07;;;;;;;0.50;0.50;;;4.00;99.90;;;;;;4986015;28;20078;-67
2023/01/28 02:59:46;;;;;;;0.15;0.15;;;4.10;99.90;;;;;;4986958;28;20591;-66
2023/01/28 03:02:25;;;;;;;0.10;0.10;;;4.10;99.90;;;;;;4986775;28;20140;-66
2023/01/28 03:05:00;;;;;;;0.10;0.10;;;4.10;99.90;;;;;;4988037;28;20046;-67
2023/01/28 03:07:29;;;;;;;0.10;0.10;;;4.00;99.90;;;;;;4970355;28;20402;-67
2023/01/28 03:09:57;;;;;;;0.25;0.25;;;4.00;99.90;;;;;;4986994;28;20034;-66
2023/01/28 03:38:00;;;;;;;0.20;0.20;;;4.00;99.90;;;;;;4985212;28;20599;-66
2023/01/28 03:40:26;;;;;;;0.10;0.10;;;3.90;99.90;;;;;;4973084;28;20062;-67
2023/01/28 03:42:53;;;;;;;0.57;0.57;;;4.00;99.90;;;;;;4968668;28;20051;-67
2023/01/28 03:45:20;;;;;;;0.20;0.20;;;4.10;99.90;;;;;;4986230;28;20412;-66
2023/01/28 03:47:46;;;;;;;1.17;0.80;;;4.00;99.90;;;;;;4986310;28;20058;-67
2023/01/28 03:50:12;;;;;;;0.10;0.10;;;4.00;99.90;;;;;;4986793;28;20061;-67
2023/01/28 03:52:37;;;;;;;0.10;0.10;;;4.00;99.90;;;;;;4987376;28;20525;-66
2023/01/28 03:55:12;;;;;;;0.10;0.10;;;4.00;99.90;;;;;;4968725;28;20053;-68
2023/01/28 03:57:38;;;;;;;0.20;0.20;;;4.10;99.90;;;;;;4987629;28;20042;-67
2023/01/28 04:00:05;;;;;;;0.10;0.10;;;4.00;99.90;;;;;;4983332;28;20541;-67
2023/01/28 04:02:31;;;;;;;0.20;0.20;;;3.90;99.90;;;;;;4970203;28;20076;-66
2023/01/28 04:04:57;;;;;;;0.10;0.10;;;4.00;99.90;;;;;;4986523;28;20058;-67
2023/01/28 04:07:23;;;;;;;0.10;0.10;;;4.00;99.90;;;;;;4986463;28;20045;-66
2023/01/28 04:09:49;;;;;;;0.20;0.20;;;4.00;99.90;;;;;;4987164;28;20499;-67
2023/01/28 04:12:15;;;;;;;0.20;0.20;;;3.90;99.90;;;;;;4987453;28;20038;-67
2023/01/28 04:14:40;;;;;;;0.10;0.10;;;4.00;99.90;;;;;;4986900;28;20100;-66
2023/01/28 04:17:09;;;;;;;0.10;0.10;;;4.00;99.90;;;;;;4987812;28;20046;-66
2023/01/28 04:19:36;;;;;;;0.10;0.10;;;4.00;99.90;;;;;;4987071;28;20042;-66
2023/01/28 04:22:06;;;;;;;0.43;0.32;;;3.90;99.90;;;;;;4986117;28;20047;-67
2023/01/28 04:24:32;;;;;;;0.10;0.10;;;3.90;99.90;;;;;;4987606;28;20478;-67
2023/01/28 04:26:58;;;;;;;0.10;0.10;;;4.00;99.90;;;;;;4987040;28;20041;-67
2023/01/28 04:29:23;;;;;;;0.25;0.25;;;3.90;99.90;;;;;;4986304;28;20045;-67
2023/01/28 04:31:49;;;;;;;0.10;0.10;;;3.80;99.90;;;;;;4986834;28;20052;-67
2023/01/28 04:34:16;;;;;;;0.35;0.35;;;3.90;99.90;;;;;;4970839;28;20077;-67
2023/01/28 04:36:41;;;;;;;0.10;0.10;;;3.90;99.90;;;;;;4986138;28;20085;-67
2023/01/28 04:39:07;;;;;;;0.10;0.10;;;3.80;99.90;;;;;;4986437;28;20042;-66
2023/01/28 04:41:33;;;;;;;0.10;0.10;;;3.80;99.90;;;;;;4987815;28;20046;-66
2023/01/28 04:43:58;;;;;;;0.20;0.20;;;3.80;99.90;;;;;;4987048;28;20042;-67
2023/01/28 04:46:24;;;;;;;0.10;0.10;;;3.80;99.90;;;;;;4972348;28;20042;-66
2023/01/28 04:48:49;;;;;;;0.13;0.13;;;3.80;99.90;;;;;;4989286;28;20046;-66
2023/01/28 04:51:15;;;;;;;0.10;0.10;;;3.80;99.90;;;;;;4990782;28;20054;-67
2023/01/28 04:53:41;;;;;;;0.25;0.25;;;3.70;99.90;;;;;;4988704;28;20378;-66
2023/01/28 04:56:07;;;;;;;1.13;1.02;;;3.70;99.90;;;;;;4989983;28;20487;-67
2023/01/28 04:58:32;;;;;;;0.47;0.35;;;3.50;99.90;;;;;;4989960;28;20125;-66
2023/01/28 05:00:59;;;;;;;0.10;0.10;;;3.60;99.90;;;;;;4989853;28;20034;-67
2023/01/28 05:03:25;;;;;;;0.20;0.20;;;3.50;99.90;;;;;;4988738;28;20402;-66
2023/01/28 05:05:51;;;;;;;0.55;0.55;;;3.50;99.90;;;;;;4989288;28;20050;-67
2023/01/28 05:08:17;;;;;;;0.10;0.10;;;3.50;99.90;;;;;;4989558;28;20057;-66
2023/01/28 05:10:43;;;;;;;0.10;0.10;;;3.60;99.90;;;;;;4989668;28;20031;-67
2023/01/28 05:13:09;;;;;;;0.10;0.10;;;3.60;99.90;;;;;;4987970;28;20086;-66
2023/01/28 05:15:35;;;;;;;0.90;0.45;;;3.60;99.90;;;;;;4987692;28;20030;-66
2023/01/28 05:18:00;;;;;;;0.10;0.10;;;3.60;99.90;;;;;;4982751;28;20402;-66
2023/01/28 05:20:26;;;;;;;0.10;0.10;;;3.60;99.90;;;;;;4989298;28;20057;-67
2023/01/28 05:22:52;;;;;;;0.10;0.10;;;3.60;99.90;;;;;;4989137;28;20049;-67
2023/01/28 05:25:20;;;;;;;0.20;0.20;;;3.50;99.90;;;;;;4990119;28;20125;-67
2023/01/28 05:27:52;;;;;;;0.10;0.10;;;3.50;99.90;;;;;;4984893;28;20050;-68
2023/01/28 05:30:21;;;;;;;0.10;0.10;;;3.50;99.90;;;;;;4990245;28;20132;-67
2023/01/28 05:32:47;;;;;;;0.10;0.10;;;3.50;99.90;;;;;;4989116;28;20038;-67
2023/01/28 05:35:16;;;;;;;0.43;0.43;;;3.50;99.90;;;;;;4988780;28;20104;-66
2023/01/28 05:37:41;;;;;;;0.10;0.10;;;3.50;99.90;;;;;;4970765;28;20042;-67
2023/01/28 05:40:13;;;;;;;0.10;0.10;;;3.50;99.90;;;;;;4989626;28;20132;-67
2023/01/28 05:42:38;;;;;;;0.65;0.65;;;3.50;99.90;;;;;;4989159;28;20133;-67
2023/01/28 05:45:04;;;;;;;0.95;0.82;;;3.60;99.90;;;;;;4988848;28;20213;-67
2023/01/28 05:47:30;;;;;;;0.10;0.10;;;3.40;99.90;;;;;;4989256;28;20662;-67
2023/01/28 05:49:55;;;;;;;0.25;0.25;;;3.50;99.90;;;;;;4987468;28;20049;-67
2023/01/28 05:52:21;;;;;;;0.25;0.25;;;3.50;99.90;;;;;;4988472;28;20567;-66
2023/01/28 05:54:47;;;;;;;0.10;0.10;;;3.50;99.90;;;;;;4972006;28;20081;-67
2023/01/28 05:57:12;;;;;;;0.17;0.17;;;3.40;99.90;;;;;;4981847;28;20073;-67
2023/01/28 05:59:38;;;;;;;0.10;0.10;;;3.40;99.90;;;;;;4987013;28;20050;-66
2023/01/28 06:02:04;;;;;;;0.10;0.10;;;3.40;99.90;;;;;;4988732;28;20050;-66
2023/01/28 06:04:29;;;;;;;0.38;0.38;;;3.50;99.90;;;;;;4972391;28;20050;-66
2023/01/28 06:06:55;;;;;;;0.47;0.47;;;3.40;99.90;;;;;;4985418;28;20034;-66
2023/01/28 06:09:21;;;;;;;0.20;0.20;;;3.40;99.90;;;;;;4989146;28;20096;-66
2023/01/28 06:11:47;;;;;;;0.10;0.10;;;3.40;99.90;;;;;;4988456;28;20125;-66
2023/01/28 06:14:12;;;;;;;0.10;0.10;;;3.40;99.90;;;;;;4988322;28;20110;-67
2023/01/28 06:16:38;;;;;;;0.10;0.10;;;3.40;99.90;;;;;;4988934;28;20043;-66
2023/01/28 06:19:06;;;;;;;0.10;0.10;;;3.40;99.90;;;;;;4988377;28;20865;-67
2023/01/28 06:21:32;;;;;;;0.10;0.10;;;3.40;99.90;;;;;;4988990;28;20096;-67
2023/01/28 06:23:58;;;;;;;0.10;0.10;;;3.40;99.90;;;;;;4988523;28;20117;-67
2023/01/28 06:26:24;;;;;;;0.10;0.10;;;3.30;99.90;;;;;;4988842;28;20050;-67
2023/01/28 06:28:49;;;;;;;0.30;0.30;;;3.30;99.90;;;;;;4973573;28;21159;-67
2023/01/28 06:31:15;;;;;;;0.30;0.30;;;3.30;99.90;;;;;;4988768;28;20387;-66
2023/01/28 06:33:40;;;;;;;0.10;0.10;;;3.20;99.90;;;;;;4971281;28;20090;-66
2023/01/28 06:36:09;;;;;;;0.10;0.10;;;3.20;99.90;;;;;;4986152;28;20104;-66
2023/01/28 06:38:35;;;;;;;0.10;0.10;;;3.10;99.90;;;;;;4988682;28;20521;-67
2023/01/28 06:41:01;;;;;;;0.10;0.10;;;3.10;99.90;;;;;;4988470;28;20050;-67
2023/01/28 06:43:27;;;;;;;1.75;1.10;;;3.10;99.90;;;;;;4989460;28;20046;-67
2023/01/28 06:45:53;;;;;;;0.30;0.30;;;3.10;99.90;;;;;;4983457;28;20233;-66
2023/01/28 06:48:20;;;;;;;0.10;0.10;;;3.10;99.90;;;;;;4987460;28;20201;-67
2023/01/28 06:50:47;;;;;;;0.32;0.32;;;2.90;99.90;;;;;;4987589;28;20060;-66
2023/01/28 06:53:13;;;;;;;0.10;0.10;;;2.90;99.90;;;;;;4987130;28;20094;-66
2023/01/28 06:55:39;;;;;;;0.63;0.63;;;2.80;99.90;;;;;;4988301;28;20076;-66
2023/01/28 06:58:08;;;;;;;0.10;0.10;;;2.80;99.90;;;;;;4988059;28;20132;-66
2023/01/28 07:00:34;;;;;;;0.65;0.65;;;2.80;99.90;;;;;;4986543;28;20052;-67
2023/01/28 07:03:03;;;;;;;0.10;0.10;;;2.70;99.90;;;;;;4984652;28;20054;-67
2023/01/28 07:05:28;;;;;;;0.22;0.22;;;2.60;99.90;;;;;;4988791;28;20042;-66
2023/01/28 07:07:54;;;;;;;0.10;0.10;;;2.50;99.90;;;;;;4987870;28;20073;-67
2023/01/28 07:10:19;;;;;;;0.10;0.10;;;2.40;99.90;;;;;;4988251;28;20133;-66
2023/01/28 07:12:45;;;;;;;0.10;0.10;;;2.40;99.90;;;;;;4986847;28;20049;-66
2023/01/28 07:15:11;;;;;;;0.10;0.10;;;2.30;99.90;;;;;;4987833;28;20494;-65
2023/01/28 07:17:41;;;;;;;0.57;0.57;;;2.40;99.90;;;;;;4987829;28;20079;-67
2023/01/28 07:20:08;;;;;;;0.10;0.10;;;2.30;99.90;;;;;;4983020;28;20053;-67
2023/01/28 07:22:34;;;;;;;0.10;0.10;;;2.20;99.90;;;;;;4986821;28;20116;-66
2023/01/28 07:25:00;;;;;;;0.10;0.10;;;2.30;99.90;;;;;;4987403;28;20126;-66
2023/01/28 07:27:26;;;;;;;0.10;0.10;;;2.40;99.90;;;;;;4984501;28;20046;-66
2023/01/28 07:29:55;;;;;;;0.10;0.10;;;2.40;99.90;;;;;;4988162;28;20034;-67
2023/01/28 07:32:20;;;;;;;0.10;0.10;;;2.50;99.90;;;;;;4976199;28;20743;-67
2023/01/28 07:34:46;;;;;;;0.10;0.10;;;2.40;99.90;;;;;;4987699;28;20054;-67
2023/01/28 07:37:12;;;;;;;0.10;0.10;;;2.30;99.90;;;;;;4987792;28;20113;-66
2023/01/28 07:39:37;;;;;;;0.30;0.30;;;2.30;99.90;;;;;;4986594;28;20129;-67
2023/01/28 07:42:03;;;;;;;0.10;0.10;;;2.40;99.90;;;;;;4983413;28;20053;-67
2023/01/28 07:44:29;;;;;;;0.20;0.20;;;2.30;99.90;;;;;;4988104;28;20528;-67
2023/01/28 07:46:55;;;;;;;0.63;0.63;;;2.20;99.90;;;;;;4981327;28;20035;-67
2023/01/28 07:49:20;;;;;;;0.75;0.75;;;2.10;99.90;;;;;;4987831;28;20065;-67
2023/01/28 07:51:47;;;;;;;0.63;0.63;;;2.10;99.90;;;;;;4986681;28;20458;-67
2023/01/28 07:54:13;;;;;;;0.10;0.10;;;2.20;99.90;;;;;;4987820;28;20054;-67
2023/01/28 07:56:38;;;;;;;0.20;0.20;;;2.20;99.90;;;;;;4986150;28;20077;-66
2023/01/28 07:59:04;;;;;;;0.55;0.55;;;2.30;99.90;;;;;;4987166;28;20065;-67
2023/01/28 08:01:30;;;;;;;0.57;0.57;;;2.20;99.90;;;;;;4987499;28;20050;-67
2023/01/28 08:03:55;;;;;;;1.02;1.00;;;2.10;99.90;;;;;;4988051;28;20149;-67
2023/01/28 08:06:21;;;;;;;0.25;0.25;;;2.20;99.90;;;;;;4986138;28;20042;-67
2023/01/28 08:08:47;;;;;;;0.10;0.10;;;2.20;99.90;;;;;;4970070;28;20042;-67
2023/01/28 08:11:13;;;;;;;0.35;0.35;;;2.30;99.90;;;;;;4983054;28;20047;-66
2023/01/28 08:13:39;;;;;;;0.10;0.10;;;2.30;99.90;;;;;;4970368;28;20440;-66
2023/01/28 08:16:05;;;;;;;0.10;0.10;;;2.30;99.90;;;;;;4984758;28;20034;-66
2023/01/28 08:18:30;;;;;;;0.15;0.15;;;2.30;99.90;;;;;;4990383;28;20089;-67
2023/01/28 08:20:57;;;;;;;0.20;0.20;;;2.30;99.90;;;;;;4989616;28;20379;-67
2023/01/28 08:23:25;;;;;;;0.10;0.10;;;2.40;99.90;;;;;;4990825;28;20050;-67
2023/01/28 08:25:52;;;;;;;1.10;1.10;;;2.40;99.90;;;;;;4991898;28;20121;-66
2023/01/28 08:28:18;;;;;;;0.10;0.10;;;2.50;99.90;;;;;;4991132;28;20069;-67
2023/01/28 08:30:44;;;;;;;1.75;1.10;;;2.60;99.90;;;;;;4991001;28;20074;-67
2023/01/28 08:33:12;;;;;;;0.10;0.10;;;2.60;99.90;;;;;;4990562;28;20081;-67
2023/01/28 08:35:38;;;;;;;0.28;0.28;;;2.60;99.90;;;;;;4988789;28;20312;-66
2023/01/28 08:38:05;;;;;;;0.30;0.30;;;2.50;99.90;;;;;;4991167;28;20575;-67
2023/01/28 08:40:31;;;;;;;9.80;1.67;;;2.50;99.90;;;;;;4988922;28;20058;-66
2023/01/28 08:42:57;;;;;;;1.23;1.13;;;2.50;99.90;;;;;;4990211;28;20477;-66
2023/01/28 08:45:24;;;;;;;0.47;0.47;;;2.50;99.90;;;;;;4988641;28;20050;-66
2023/01/28 08:47:52;;;;;;;0.10;0.10;;;2.50;99.90;;;;;;4981266;28;20050;-65
2023/01/28 08:50:20;;;;;;;0.82;0.82;;;2.50;99.90;;;;;;4987697;28;20510;-65
2023/01/28 08:52:46;;;;;;;0.10;0.10;;;2.50;99.90;;;;;;4987665;28;20120;-65
2023/01/28 08:55:12;;;;;;;0.22;0.22;;;2.60;99.90;;;;;;4983727;28;20045;-66
2023/01/28 08:57:38;;;;;;;0.30;0.30;;;2.50;99.90;;;;;;4991193;28;20034;-66
2023/01/28 09:00:09;;;;;;;0.40;0.40;;;2.40;99.90;;;;;;4989807;28;20113;-66
2023/01/28 09:02:36;;;;;;;0.40;0.40;;;2.40;99.90;;;;;;4984616;28;20402;-66
2023/01/28 09:05:02;;;;;;;0.20;0.20;;;2.50;99.90;;;;;;4983350;28;20046;-66
2023/01/28 09:07:28;;;;;;;0.32;0.32;;;2.40;99.90;;;;;;4989395;28;20041;-66
2023/01/28 09:09:53;;;;;;;0.20;0.20;;;2.50;99.90;;;;;;4990374;28;20050;-67
2023/01/28 09:12:19;;;;;;;0.20;0.20;;;2.60;99.90;;;;;;4990295;28;20046;-66
2023/01/28 09:14:44;;;;;;;0.20;0.20;;;2.70;99.90;;;;;;4990691;28;20042;-66
2023/01/28 09:17:10;;;;;;;0.10;0.10;;;2.70;99.90;;;;;;4984583;28;20049;-66
2023/01/28 09:19:36;;;;;;;0.10;0.10;;;2.80;99.90;;;;;;4990933;28;20549;-66
2023/01/28 09:22:05;;;;;;;0.10;0.10;;;2.90;99.90;;;;;;4983953;28;20046;-67
2023/01/28 09:24:30;;;;;;;3.83;1.80;;;2.90;99.90;;;;;;4989521;28;20050;-66
2023/01/28 09:26:56;;;;;;;0.10;0.10;;;3.00;99.90;;;;;;4985923;28;20486;-67
2023/01/28 09:29:22;;;;;;;0.40;0.40;;;3.10;99.90;;;;;;4990439;28;20093;-67
2023/01/28 09:31:47;;;;;;;0.10;0.10;;;3.00;99.90;;;;;;4988760;28;20493;-67
2023/01/28 09:34:13;;;;;;;0.10;0.10;;;3.10;99.90;;;;;;4989595;28;20561;-67
2023/01/28 09:36:39;;;;;;;0.20;0.20;;;3.20;99.90;;;;;;4990400;28;20129;-66
2023/01/28 09:39:05;;;;;;;0.10;0.10;;;3.20;99.90;;;;;;4989034;28;20445;-66
2023/01/28 09:41:40;;;;;;;0.28;0.28;;;3.30;99.90;;;;;;4990590;28;20054;-67
2023/01/28 09:44:43;;;;;;;0.10;0.10;;;3.30;99.90;;;;;;4970342;28;20088;-66
2023/01/28 09:47:28;;;;;;;1.50;1.40;;;3.30;99.90;;;;;;4978342;28;20065;-66
2023/01/28 09:49:57;;;;;;;0.20;0.20;;;3.40;99.90;;;;;;4988602;28;20091;-67
2023/01/28 09:52:25;;;;;;;0.28;0.28;;;3.40;99.90;;;;;;4972168;28;20047;-66
2023/01/28 09:55:01;;;;;;;0.77;0.77;;;3.50;99.90;;;;;;4990062;28;20042;-67
2023/01/28 09:57:38;;;;;;;0.10;0.10;;;3.50;99.90;;;;;;4989224;28;20042;-66
2023/01/28 10:00:17;;;;;;;0.13;0.13;;;3.60;99.90;;;;;;4988932;28;20046;-67
2023/01/28 10:02:54;;;;;;;0.10;0.10;;;3.70;99.90;;;;;;4977982;28;20081;-67
2023/01/28 10:05:39;;;;;;;0.55;0.55;;;3.80;99.90;;;;;;4988365;28;20050;-67
2023/01/28 10:08:26;;;;;;;0.10;0.10;;;3.90;99.90;;;;;;4994159;28;20081;-67
2023/01/28 10:11:14;;;;;;;0.10;0.10;;;4.00;99.90;;;;;;4958465;28;20394;-67
2023/01/28 10:14:05;;;;;;;0.15;0.15;;;4.10;99.90;;;;;;4967910;28;20510;-67
2023/01/28 10:16:40;;;;;;;0.20;0.20;;;4.30;99.90;;;;;;4985016;28;20122;-67
2023/01/28 10:19:16;;;;;;;0.10;0.10;;;4.40;99.90;;;;;;4980424;28;20395;-67
2023/01/28 10:22:19;;;;;;;0.20;0.20;;;4.50;99.90;;;;;;4985262;28;20046;-67
2023/01/28 10:24:51;;;;;;;0.47;0.47;;;4.60;99.90;;;;;;4952726;28;20058;-67
2023/01/28 10:27:27;;;;;;;0.40;0.40;;;4.60;99.90;;;;;;4987617;28;20398;-67
2023/01/28 10:29:54;;;;;;;0.10;0.10;;;4.70;99.90;;;;;;4971853;28;20502;-67
2023/01/28 10:32:31;;;;;;;0.10;0.10;;;4.80;99.90;;;;;;4990210;28;20056;-67
2023/01/28 10:35:03;;;;;;;0.15;0.15;;;4.80;99.90;;;;;;4985160;28;20050;-67
2023/01/28 10:37:34;;;;;;;0.10;0.10;;;4.90;99.90;;;;;;4989895;28;20053;-67
2023/01/28 10:40:02;;;;;;;0.80;0.80;;;5.00;99.90;;;;;;4977817;28;20388;-67
2023/01/28 10:42:37;;;;;;;0.10;0.10;;;5.10;99.90;;;;;;4971253;28;20062;-66
2023/01/28 10:45:13;;;;;;;0.40;0.40;;;5.10;99.90;;;;;;4988661;28;20733;-67
2023/01/28 10:47:47;;;;;;;0.10;0.10;;;5.10;99.90;;;;;;4988034;28;20049;-67
2023/01/28 10:50:19;;;;;;;0.10;0.10;;;5.10;99.90;;;;;;4988976;28;20058;-67
2023/01/28 10:53:02;;;;;;;0.10;0.10;;;5.10;99.90;;;;;;4987607;28;20073;-67
2023/01/28 10:55:44;;;;;;;0.65;0.65;;;5.10;99.90;;;;;;4987002;28;20051;-67
2023/01/28 10:58:22;;;;;;;0.10;0.10;;;5.10;99.90;;;;;;4980007;28;20279;-67
2023/01/28 11:00:53;;;;;;;0.10;0.10;;;5.00;99.90;;;;;;4968612;28;20046;-66
2023/01/28 11:03:20;;;;;;;0.00;0.00;;;5.10;99.90;;;;;;4983713;28;20062;-67
2023/01/28 11:05:53;;;;;;;0.10;0.10;;;5.20;99.90;;;;;;4969560;28;20046;-66
2023/01/28 11:08:20;;;;;;;;;;;5.20;99.90;;;;;;4988756;28;20123;-66
2023/01/28 11:10:47;;;;;;;0.10;0.10;;;5.20;99.90;;;;;;4987860;28;19921;-66
2023/01/28 11:13:22;;;;;;;0.10;0.10;;;5.20;99.90;;;;;;4988010;28;20396;-67
2023/01/28 11:15:57;;;;;;;0.10;0.10;;;5.20;99.90;;;;;;4983963;28;20050;-67
2023/01/28 11:18:30;;;;;;;0.40;0.40;;;5.30;99.90;;;;;;4977759;28;20082;-67
2023/01/28 11:21:03;;;;;;;0.10;0.10;;;5.30;99.90;;;;;;4976716;28;20070;-67
2023/01/28 11:23:34;;;;;;;2.17;1.98;;;5.40;99.90;;;;;;4983129;28;20075;-67
2023/01/28 11:26:08;;;;;;;0.10;0.10;;;5.40;99.90;;;;;;4987306;28;20047;-64
2023/01/28 11:28:39;;;;;;;0.20;0.20;;;5.40;99.90;;;;;;4981468;28;20113;-66
2023/01/28 11:31:05;;;;;;;0.32;0.32;;;5.40;99.90;;;;;;4983558;28;20061;-65
2023/01/28 11:33:36;;;;;;;0.20;0.20;;;5.40;99.90;;;;;;4986380;28;20054;-65
2023/01/28 11:36:07;;;;;;;0.80;0.52;;;5.30;99.90;;;;;;4986492;28;20042;-65
2023/01/28 11:38:45;;;;;;;0.10;0.10;;;5.30;99.90;;;;;;4986826;28;20051;-66
2023/01/28 11:41:14;;;;;;;0.10;0.10;;;5.40;99.90;;;;;;4968592;28;20047;-65
2023/01/28 11:43:41;;;;;;;0.10;0.10;;;5.50;99.90;;;;;;4985790;28;20506;-65
2023/01/28 11:46:37;;;;;;;0.20;0.20;;;5.70;99.90;;;;;;4985796;28;20049;-66
2023/01/28 11:49:13;;;;;;;0.17;0.17;;;5.90;99.90;;;;;;4986020;28;20042;-67
2023/01/28 11:51:42;;;;;;;0.20;0.20;;;6.10;99.90;;;;;;4988921;28;20089;-67
2023/01/28 11:54:26;;;;;;;0.10;0.10;;;6.10;99.90;;;;;;4989336;28;20039;-67
2023/01/28 11:57:13;;;;;;;0.73;0.52;;;6.10;99.90;;;;;;4991692;28;20054;-67
2023/01/28 12:00:22;;;;;;;1.70;0.55;;;6.00;99.90;;;;;;4990551;28;20054;-67
2023/01/28 12:02:48;;;;;;;0.10;0.10;;;5.90;99.90;;;;;;4942092;28;20121;-67
2023/01/28 12:05:29;;;;;;;0.10;0.10;;;5.90;99.90;;;;;;4989417;28;20046;-67
2023/01/28 12:08:23;;;;;;;0.10;0.10;;;5.90;99.90;;;;;;4988642;28;20078;-68
2023/01/28 12:11:15;;;;;;;;;;;5.80;99.90;;;;;;4990942;28;20046;-68
2023/01/28 12:13:59;;;;;;;0.10;0.10;;;5.80;99.90;;;;;;4987520;28;20012;-67
2023/01/28 12:16:49;;;;;;;0.10;0.10;;;5.70;99.90;;;;;;4988999;28;20050;-67
2023/01/28 12:19:40;;;;;;;0.52;0.52;;;5.90;99.90;;;;;;4988876;28;20042;-67
2023/01/28 12:22:37;;;;;;;0.10;0.10;;;6.50;99.90;;;;;;4984517;28;20038;-67
2023/01/28 12:25:17;;;;;;;0.10;0.10;;;6.90;99.90;;;;;;4989103;28;20058;-67
2023/01/28 12:27:50;;;;;;;0.10;0.10;;;7.30;99.90;;;;;;4988457;28;20482;-67
2023/01/28 12:30:41;;;;;;;0.10;0.10;;;7.30;99.90;;;;;;4988571;28;20046;-67
2023/01/28 12:33:13;;;;;;;0.10;0.10;;;7.40;99.90;;;;;;4988535;28;20401;-67
2023/01/28 12:35:57;;;;;;;0.10;0.10;;;7.40;99.90;;;;;;4989247;28;20050;-68
2023/01/28 12:38:34;;;;;;;;;;;7.30;99.90;;;;;;4991717;28;20038;-67
2023/01/28 12:41:24;;;;;;;0.20;0.20;;;7.20;99.90;;;;;;4985930;28;20942;-67
2023/01/28 12:43:58;;;;;;;0.10;0.10;;;7.00;99.90;;;;;;4987266;28;20046;-67
2023/01/28 12:46:26;;;;;;;0.10;0.10;;;6.90;99.90;;;;;;4988511;28;20051;-67
2023/01/28 12:49:04;;;;;;;0.70;0.70;;;6.80;99.90;;;;;;4987165;28;20076;-67
2023/01/28 12:51:42;;;;;;;1.02;1.00;;;6.70;99.90;;;;;;4990608;28;20066;-67
2023/01/28 12:54:37;;;;;;;0.40;0.40;;;6.70;99.90;;;;;;4996490;28;20561;-66
2023/01/28 12:57:03;;;;;;;0.10;0.10;;;6.70;99.90;;;;;;4969769;28;20108;-66
2023/01/28 12:59:40;;;;;;;1.80;1.48;;;6.70;99.90;;;;;;4990945;28;20038;-66
2023/01/28 13:02:12;;;;;;;0.10;0.10;;;6.70;99.90;;;;;;4986967;28;20046;-67
2023/01/28 13:05:03;;;;;;;0.10;0.10;;;6.70;99.90;;;;;;4990399;28;20096;-66
2023/01/28 13:07:51;;;;;;;0.10;0.10;;;6.70;99.90;;;;;;4991558;28;20046;-66
2023/01/28 13:10:21;;;;;;;0.10;0.10;;;6.70;99.90;;;;;;4987700;28;20410;-67
2023/01/28 13:12:47;;;;;;;0.10;0.10;;;6.70;99.90;;;;;;4988731;28;20542;-67
2023/01/28 13:15:17;;;;;;;0.00;0.00;;;6.80;99.90;;;;;;4986893;28;20038;-67
2023/01/28 13:18:31;;;;;;;0.20;0.20;;;6.70;99.90;;;;;;4973304;28;20660;-67
2023/01/28 13:20:57;;;;;;;0.15;0.15;;;6.60;99.90;;;;;;4980709;28;20142;-67
2023/01/28 13:23:43;;;;;;;0.10;0.10;;;6.60;99.90;;;;;;4987377;28;20131;-67
2023/01/28 13:26:18;;;;;;;0.30;0.30;;;6.60;99.90;;;;;;4969312;28;20062;-67
2023/01/28 13:28:44;;;;;;;0.10;0.10;;;6.70;99.90;;;;;;4989717;28;20524;-67
2023/01/28 13:31:16;;;;;;;0.10;0.10;;;6.60;99.90;;;;;;4989253;28;20054;-68
2023/01/28 13:33:47;;;;;;;0.40;0.40;;;6.70;99.90;;;;;;4987573;28;20053;-67
2023/01/28 13:36:27;;;;;;;0.17;0.17;;;6.80;99.90;;;;;;4989057;28;20189;-67
2023/01/28 13:39:14;;;;;;;0.10;0.10;;;6.80;99.90;;;;;;4988592;28;20117;-66
2023/01/28 13:41:43;;;;;;;0.10;0.10;;;6.80;99.90;;;;;;4978791;28;20050;-66
2023/01/28 13:44:29;;;;;;;0.10;0.10;;;6.70;99.90;;;;;;4988633;28;20054;-67
2023/01/28 13:46:56;;;;;;;0.20;0.20;;;6.80;99.90;;;;;;4986547;28;20081;-67